TAX94MB LEMH-LPPR
Flight info
| Callsign | TAX94MB |
|---|---|
| Flight time | 1h 33m |
| Altitude | 37000 |
| Route | EPAMA DCT IXUPA DCT ARGOR DCT VLC N733 ZMR L155 ADORO/N0436F380 DCT ELGIX |
| Aircraft | A319/M-SDE3FGHIJ1RWXY/LB1 |
Departure
| Time | 2026-04-26 11:49 |
|---|---|
| Airport | Menorca Airport (LEMH) |
Arrival
| Time | 2026-04-26 13:22 |
|---|---|
| Airport | Francisco de Sá Carneiro Airport (LPPR) |
| Time | Latitude | Longitude | Altitude | Speed | Heading |
|---|---|---|---|---|---|
| 2026-04-26 11:31 | 39.86468 | 4.22401 | 286 ft | 0 kts | 99° |
| 2026-04-26 11:42 | 39.86457 | 4.22315 | 292 ft | 3 kts | 9° |
| 2026-04-26 11:43 | 39.86447 | 4.22313 | 292 ft | 0 kts | 9° |
| 2026-04-26 11:45 | 39.86448 | 4.22313 | 292 ft | 1 kts | 9° |
| 2026-04-26 11:45 | 39.86460 | 4.22316 | 294 ft | 3 kts | 9° |
| 2026-04-26 11:45 | 39.86474 | 4.22318 | 292 ft | 4 kts | 8° |
| 2026-04-26 11:45 | 39.86509 | 4.22320 | 289 ft | 6 kts | 350° |
| 2026-04-26 11:46 | 39.86535 | 4.22285 | 292 ft | 5 kts | 288° |
| 2026-04-26 11:46 | 39.86542 | 4.22235 | 295 ft | 6 kts | 280° |
| 2026-04-26 11:46 | 39.86552 | 4.22190 | 293 ft | 4 kts | 298° |
| 2026-04-26 11:46 | 39.86592 | 4.22174 | 296 ft | 9 kts | 11° |
| 2026-04-26 11:47 | 39.86684 | 4.22193 | 300 ft | 17 kts | 7° |
| 2026-04-26 11:47 | 39.86825 | 4.22220 | 302 ft | 22 kts | 9° |
| 2026-04-26 11:47 | 39.86978 | 4.22251 | 301 ft | 22 kts | 9° |
| 2026-04-26 11:47 | 39.87128 | 4.22282 | 305 ft | 22 kts | 9° |
| 2026-04-26 11:48 | 39.87275 | 4.22313 | 310 ft | 20 kts | 9° |
| 2026-04-26 11:48 | 39.87376 | 4.22304 | 312 ft | 13 kts | 315° |
| 2026-04-26 11:48 | 39.87390 | 4.22182 | 311 ft | 16 kts | 255° |
| 2026-04-26 11:48 | 39.87331 | 4.22085 | 310 ft | 15 kts | 194° |
| 2026-04-26 11:49 | 39.87141 | 4.22045 | 305 ft | 58 kts | 188° |
| 2026-04-26 11:49 | 39.86479 | 4.21909 | 303 ft | 131 kts | 189° |
| 2026-04-26 11:49 | 39.85497 | 4.21704 | 771 ft | 142 kts | 188° |
| 2026-04-26 11:49 | 39.84517 | 4.21514 | 1441 ft | 146 kts | 187° |
| 2026-04-26 11:50 | 39.83439 | 4.21324 | 1928 ft | 167 kts | 187° |
| 2026-04-26 11:50 | 39.82206 | 4.21108 | 2395 ft | 190 kts | 187° |
| 2026-04-26 11:50 | 39.80819 | 4.20863 | 2818 ft | 212 kts | 187° |
| 2026-04-26 11:50 | 39.79341 | 4.20601 | 3588 ft | 221 kts | 186° |
| 2026-04-26 11:51 | 39.77730 | 4.20320 | 4110 ft | 245 kts | 186° |
| 2026-04-26 11:51 | 39.75963 | 4.20010 | 4731 ft | 265 kts | 186° |
| 2026-04-26 11:51 | 39.74114 | 4.19620 | 5625 ft | 274 kts | 194° |
| 2026-04-26 11:51 | 39.72407 | 4.18472 | 6575 ft | 282 kts | 219° |
| 2026-04-26 11:52 | 39.71186 | 4.16469 | 7522 ft | 286 kts | 244° |
| 2026-04-26 11:52 | 39.70706 | 4.13972 | 8493 ft | 289 kts | 269° |
| 2026-04-26 11:52 | 39.71010 | 4.11388 | 9490 ft | 291 kts | 285° |
| 2026-04-26 11:52 | 39.71503 | 4.08829 | 10439 ft | 294 kts | 280° |
| 2026-04-26 11:53 | 39.71562 | 4.06159 | 11236 ft | 300 kts | 262° |
| 2026-04-26 11:53 | 39.70968 | 4.03521 | 11816 ft | 315 kts | 243° |
| 2026-04-26 11:53 | 39.69676 | 4.01103 | 12112 ft | 338 kts | 229° |
| 2026-04-26 11:54 | 39.66699 | 3.96095 | 13242 ft | 362 kts | 242° |
| 2026-04-26 11:54 | 39.65917 | 3.92970 | 13964 ft | 369 kts | 262° |
| 2026-04-26 11:54 | 39.65819 | 3.89631 | 14641 ft | 373 kts | 270° |
| 2026-04-26 11:54 | 39.65812 | 3.86241 | 15339 ft | 377 kts | 270° |
| 2026-04-26 11:55 | 39.65813 | 3.82827 | 16025 ft | 381 kts | 270° |
| 2026-04-26 11:55 | 39.65814 | 3.79370 | 16698 ft | 385 kts | 270° |
| 2026-04-26 11:55 | 39.65812 | 3.75866 | 17348 ft | 390 kts | 270° |
| 2026-04-26 11:55 | 39.65808 | 3.72321 | 18018 ft | 394 kts | 270° |
| 2026-04-26 11:56 | 39.65801 | 3.68791 | 18653 ft | 398 kts | 269° |
| 2026-04-26 11:56 | 39.65790 | 3.65134 | 19263 ft | 402 kts | 269° |
| 2026-04-26 11:56 | 39.65777 | 3.61546 | 19878 ft | 404 kts | 269° |
| 2026-04-26 11:56 | 39.65763 | 3.57835 | 20523 ft | 407 kts | 269° |
| 2026-04-26 11:57 | 39.65748 | 3.54197 | 21141 ft | 409 kts | 269° |
| 2026-04-26 11:57 | 39.65731 | 3.50486 | 21752 ft | 412 kts | 269° |
| 2026-04-26 11:57 | 39.65710 | 3.46757 | 22341 ft | 415 kts | 269° |
| 2026-04-26 11:57 | 39.65686 | 3.43000 | 22944 ft | 418 kts | 269° |
| 2026-04-26 11:58 | 39.65654 | 3.39212 | 23491 ft | 421 kts | 269° |
| 2026-04-26 11:58 | 39.65597 | 3.35401 | 23967 ft | 424 kts | 268° |
| 2026-04-26 11:58 | 39.65523 | 3.31559 | 24447 ft | 427 kts | 268° |
| 2026-04-26 11:58 | 39.65440 | 3.27698 | 24922 ft | 428 kts | 268° |
| 2026-04-26 11:59 | 39.65355 | 3.23822 | 25355 ft | 431 kts | 268° |
| 2026-04-26 11:59 | 39.65272 | 3.19925 | 25785 ft | 434 kts | 268° |
| 2026-04-26 11:59 | 39.65191 | 3.16003 | 26217 ft | 436 kts | 268° |
| 2026-04-26 11:59 | 39.65111 | 3.12057 | 26666 ft | 438 kts | 268° |
| 2026-04-26 12:00 | 39.65032 | 3.08149 | 27114 ft | 440 kts | 268° |
| 2026-04-26 12:00 | 39.64950 | 3.04158 | 27527 ft | 443 kts | 268° |
| 2026-04-26 12:00 | 39.64869 | 3.00140 | 27905 ft | 447 kts | 268° |
| 2026-04-26 12:00 | 39.64787 | 2.96100 | 28326 ft | 449 kts | 268° |
| 2026-04-26 12:01 | 39.64703 | 2.92043 | 28744 ft | 451 kts | 267° |
| 2026-04-26 12:01 | 39.64614 | 2.87965 | 29116 ft | 453 kts | 268° |
| 2026-04-26 12:01 | 39.64522 | 2.83861 | 29486 ft | 456 kts | 267° |
| 2026-04-26 12:01 | 39.64423 | 2.79741 | 29872 ft | 458 kts | 268° |
| 2026-04-26 12:02 | 39.64324 | 2.75606 | 30249 ft | 460 kts | 267° |
| 2026-04-26 12:02 | 39.64226 | 2.71452 | 30555 ft | 462 kts | 267° |
| 2026-04-26 12:02 | 39.64125 | 2.67266 | 30846 ft | 464 kts | 267° |
| 2026-04-26 12:02 | 39.64025 | 2.63063 | 31188 ft | 465 kts | 267° |
| 2026-04-26 12:03 | 39.63925 | 2.58875 | 31625 ft | 464 kts | 267° |
| 2026-04-26 12:03 | 39.63821 | 2.54698 | 32058 ft | 463 kts | 267° |
| 2026-04-26 12:03 | 39.63716 | 2.50522 | 32492 ft | 462 kts | 267° |
| 2026-04-26 12:03 | 39.63607 | 2.46352 | 32923 ft | 461 kts | 267° |
| 2026-04-26 12:04 | 39.63500 | 2.42194 | 33360 ft | 461 kts | 267° |
| 2026-04-26 12:04 | 39.63391 | 2.38045 | 33790 ft | 460 kts | 267° |
| 2026-04-26 12:04 | 39.63282 | 2.33899 | 34215 ft | 459 kts | 267° |
| 2026-04-26 12:04 | 39.63172 | 2.29762 | 34604 ft | 458 kts | 267° |
| 2026-04-26 12:05 | 39.63060 | 2.25685 | 35017 ft | 457 kts | 267° |
| 2026-04-26 12:05 | 39.62947 | 2.21576 | 35422 ft | 455 kts | 267° |
| 2026-04-26 12:05 | 39.62834 | 2.17481 | 35818 ft | 454 kts | 267° |
| 2026-04-26 12:05 | 39.62718 | 2.13397 | 36208 ft | 452 kts | 267° |
| 2026-04-26 12:06 | 39.62601 | 2.09333 | 36584 ft | 450 kts | 267° |
| 2026-04-26 12:06 | 39.62483 | 2.05281 | 36945 ft | 449 kts | 267° |
| 2026-04-26 12:06 | 39.62364 | 2.01233 | 37149 ft | 448 kts | 267° |
| 2026-04-26 12:07 | 39.62125 | 1.93140 | 37179 ft | 453 kts | 267° |
| 2026-04-26 12:07 | 39.61871 | 1.84888 | 37180 ft | 460 kts | 267° |
| 2026-04-26 12:08 | 39.61603 | 1.76587 | 37175 ft | 462 kts | 267° |
| 2026-04-26 12:08 | 39.61335 | 1.68267 | 37174 ft | 462 kts | 267° |
| 2026-04-26 12:09 | 39.61065 | 1.59938 | 37170 ft | 462 kts | 267° |
| 2026-04-26 12:09 | 39.60788 | 1.51614 | 37172 ft | 462 kts | 267° |
| 2026-04-26 12:10 | 39.60502 | 1.43342 | 37172 ft | 462 kts | 267° |
| 2026-04-26 12:10 | 39.60196 | 1.35007 | 37172 ft | 462 kts | 266° |
| 2026-04-26 12:11 | 39.60115 | 1.26669 | 37172 ft | 463 kts | 275° |
| 2026-04-26 12:11 | 39.60757 | 1.18355 | 37179 ft | 463 kts | 275° |
| 2026-04-26 12:12 | 39.61405 | 1.10039 | 37174 ft | 463 kts | 275° |
| 2026-04-26 12:12 | 39.62043 | 1.01728 | 37175 ft | 463 kts | 275° |
| 2026-04-26 12:13 | 39.62673 | 0.93401 | 37176 ft | 464 kts | 275° |
| 2026-04-26 12:13 | 39.63287 | 0.85126 | 37178 ft | 464 kts | 275° |
| 2026-04-26 12:14 | 39.63888 | 0.76788 | 37181 ft | 464 kts | 275° |
| 2026-04-26 12:14 | 39.64492 | 0.68449 | 37175 ft | 464 kts | 275° |
| 2026-04-26 12:15 | 39.65098 | 0.60101 | 37171 ft | 465 kts | 275° |
| 2026-04-26 12:15 | 39.65681 | 0.51746 | 37172 ft | 465 kts | 275° |
| 2026-04-26 12:16 | 39.66237 | 0.43386 | 37172 ft | 465 kts | 275° |
| 2026-04-26 12:16 | 39.66786 | 0.35023 | 37166 ft | 465 kts | 275° |
| 2026-04-26 12:17 | 39.67330 | 0.26632 | 37160 ft | 466 kts | 275° |
| 2026-04-26 12:17 | 39.67878 | 0.18251 | 37160 ft | 467 kts | 275° |
| 2026-04-26 12:18 | 39.68420 | 0.09852 | 37160 ft | 467 kts | 275° |
| 2026-04-26 12:18 | 39.68955 | 0.01449 | 37160 ft | 467 kts | 275° |
| 2026-04-26 12:19 | 39.69492 | -0.06960 | 37149 ft | 467 kts | 275° |
| 2026-04-26 12:19 | 39.70022 | -0.15383 | 37152 ft | 468 kts | 275° |
| 2026-04-26 12:20 | 39.70536 | -0.23764 | 37157 ft | 468 kts | 274° |
| 2026-04-26 12:20 | 39.71050 | -0.32191 | 37163 ft | 468 kts | 274° |
| 2026-04-26 12:21 | 39.71556 | -0.40634 | 37164 ft | 469 kts | 274° |
| 2026-04-26 12:21 | 39.72054 | -0.49075 | 37168 ft | 468 kts | 274° |
| 2026-04-26 12:22 | 39.72549 | -0.57524 | 37162 ft | 469 kts | 274° |
| 2026-04-26 12:22 | 39.73035 | -0.65908 | 37166 ft | 468 kts | 274° |
| 2026-04-26 12:23 | 39.73519 | -0.74345 | 37160 ft | 468 kts | 274° |
| 2026-04-26 12:23 | 39.73990 | -0.82787 | 37164 ft | 468 kts | 274° |
| 2026-04-26 12:24 | 39.74453 | -0.91224 | 37165 ft | 468 kts | 274° |
| 2026-04-26 12:24 | 39.74926 | -0.99649 | 37147 ft | 468 kts | 274° |
| 2026-04-26 12:25 | 39.76686 | -1.12029 | 37141 ft | 466 kts | 294° |
| 2026-04-26 12:25 | 39.79776 | -1.19418 | 37148 ft | 464 kts | 300° |
| 2026-04-26 12:26 | 39.82963 | -1.26718 | 37163 ft | 463 kts | 300° |
| 2026-04-26 12:26 | 39.86114 | -1.34016 | 37165 ft | 462 kts | 299° |
| 2026-04-26 12:27 | 39.89255 | -1.41319 | 37164 ft | 461 kts | 300° |
| 2026-04-26 12:27 | 39.92373 | -1.48556 | 37167 ft | 461 kts | 300° |
| 2026-04-26 12:28 | 39.95503 | -1.55846 | 37172 ft | 461 kts | 300° |
| 2026-04-26 12:28 | 39.98632 | -1.63138 | 37170 ft | 460 kts | 299° |
| 2026-04-26 12:29 | 40.01745 | -1.70422 | 37161 ft | 460 kts | 299° |
| 2026-04-26 12:30 | 40.06410 | -1.81351 | 37165 ft | 459 kts | 299° |
| 2026-04-26 12:30 | 40.09512 | -1.88642 | 37163 ft | 459 kts | 299° |
| 2026-04-26 12:31 | 40.14142 | -1.99577 | 37156 ft | 458 kts | 299° |
| 2026-04-26 12:31 | 40.17223 | -2.06847 | 37163 ft | 457 kts | 299° |
| 2026-04-26 12:32 | 40.19792 | -2.12883 | 37165 ft | 456 kts | 299° |
| 2026-04-26 12:33 | 40.24406 | -2.23765 | 37155 ft | 456 kts | 298° |
| 2026-04-26 12:33 | 40.27448 | -2.31038 | 37143 ft | 455 kts | 298° |
| 2026-04-26 12:34 | 40.30489 | -2.38331 | 37133 ft | 455 kts | 298° |
| 2026-04-26 12:34 | 40.33520 | -2.45614 | 37135 ft | 455 kts | 298° |
| 2026-04-26 12:35 | 40.36552 | -2.52904 | 37135 ft | 455 kts | 298° |
| 2026-04-26 12:35 | 40.39532 | -2.60232 | 37130 ft | 456 kts | 297° |
| 2026-04-26 12:36 | 40.42421 | -2.67641 | 37120 ft | 456 kts | 297° |
| 2026-04-26 12:36 | 40.45276 | -2.75009 | 37143 ft | 455 kts | 297° |
| 2026-04-26 12:37 | 40.48181 | -2.82457 | 37145 ft | 455 kts | 297° |
| 2026-04-26 12:37 | 40.51052 | -2.89803 | 37206 ft | 455 kts | 297° |
| 2026-04-26 12:37 | 40.52493 | -2.93495 | 37603 ft | 453 kts | 297° |
| 2026-04-26 12:38 | 40.53926 | -2.97179 | 37957 ft | 452 kts | 297° |
| 2026-04-26 12:38 | 40.55354 | -3.00858 | 38131 ft | 453 kts | 297° |
| 2026-04-26 12:38 | 40.56784 | -3.04545 | 38143 ft | 452 kts | 297° |
| 2026-04-26 12:39 | 40.59635 | -3.11920 | 38145 ft | 453 kts | 297° |
| 2026-04-26 12:39 | 40.62483 | -3.19308 | 38150 ft | 452 kts | 297° |
| 2026-04-26 12:40 | 40.65335 | -3.26697 | 38156 ft | 453 kts | 297° |
| 2026-04-26 12:40 | 40.68181 | -3.34093 | 38152 ft | 452 kts | 297° |
| 2026-04-26 12:41 | 40.71015 | -3.41493 | 38140 ft | 453 kts | 297° |
| 2026-04-26 12:41 | 40.73846 | -3.48912 | 38158 ft | 452 kts | 297° |
| 2026-04-26 12:42 | 40.76672 | -3.56316 | 38155 ft | 452 kts | 297° |
| 2026-04-26 12:42 | 40.79469 | -3.63675 | 38172 ft | 452 kts | 297° |
| 2026-04-26 12:43 | 40.82288 | -3.71085 | 38191 ft | 451 kts | 297° |
| 2026-04-26 12:43 | 40.85089 | -3.78481 | 38181 ft | 450 kts | 297° |
| 2026-04-26 12:44 | 40.87885 | -3.85891 | 38178 ft | 451 kts | 297° |
| 2026-04-26 12:44 | 40.90681 | -3.93319 | 38180 ft | 451 kts | 297° |
| 2026-04-26 12:45 | 40.93469 | -4.00753 | 38176 ft | 452 kts | 297° |
| 2026-04-26 12:45 | 40.96256 | -4.08214 | 38180 ft | 452 kts | 297° |
| 2026-04-26 12:46 | 40.99041 | -4.15671 | 38182 ft | 452 kts | 297° |
| 2026-04-26 12:46 | 41.01810 | -4.23085 | 38190 ft | 452 kts | 297° |
| 2026-04-26 12:47 | 41.04589 | -4.30549 | 38190 ft | 452 kts | 297° |
| 2026-04-26 12:47 | 41.07367 | -4.38025 | 38184 ft | 452 kts | 296° |
| 2026-04-26 12:48 | 41.10136 | -4.45509 | 38178 ft | 452 kts | 296° |
| 2026-04-26 12:48 | 41.12895 | -4.53005 | 38171 ft | 453 kts | 296° |
| 2026-04-26 12:49 | 41.15663 | -4.60510 | 38160 ft | 453 kts | 296° |
| 2026-04-26 12:49 | 41.18435 | -4.68014 | 38164 ft | 453 kts | 296° |
| 2026-04-26 12:50 | 41.21191 | -4.75539 | 38156 ft | 453 kts | 296° |
| 2026-04-26 12:50 | 41.23939 | -4.83083 | 38157 ft | 453 kts | 296° |
| 2026-04-26 12:51 | 41.26681 | -4.90622 | 38161 ft | 453 kts | 296° |
| 2026-04-26 12:51 | 41.29406 | -4.98131 | 38165 ft | 453 kts | 296° |
| 2026-04-26 12:52 | 41.32124 | -5.05634 | 38150 ft | 443 kts | 296° |
| 2026-04-26 12:52 | 41.34780 | -5.12976 | 38150 ft | 439 kts | 296° |
| 2026-04-26 12:53 | 41.37418 | -5.20292 | 38148 ft | 438 kts | 296° |
| 2026-04-26 12:53 | 41.40056 | -5.27614 | 38155 ft | 438 kts | 295° |
| 2026-04-26 12:54 | 41.42681 | -5.34939 | 38153 ft | 438 kts | 295° |
| 2026-04-26 12:54 | 41.45297 | -5.42271 | 38156 ft | 438 kts | 295° |
| 2026-04-26 12:55 | 41.47909 | -5.49602 | 38162 ft | 437 kts | 295° |
| 2026-04-26 12:55 | 41.50518 | -5.56935 | 38154 ft | 437 kts | 295° |
| 2026-04-26 12:56 | 41.52403 | -5.64542 | 38159 ft | 436 kts | 278° |
| 2026-04-26 12:56 | 41.52406 | -5.72660 | 38155 ft | 436 kts | 264° |
| 2026-04-26 12:57 | 41.51812 | -5.80666 | 38153 ft | 436 kts | 264° |
| 2026-04-26 12:57 | 41.51234 | -5.88716 | 38155 ft | 436 kts | 264° |
| 2026-04-26 12:58 | 41.50356 | -6.00782 | 38149 ft | 435 kts | 264° |
| 2026-04-26 12:58 | 41.49763 | -6.08821 | 38139 ft | 435 kts | 264° |
| 2026-04-26 12:59 | 41.49158 | -6.16853 | 38142 ft | 435 kts | 264° |
| 2026-04-26 12:59 | 41.48545 | -6.24883 | 38142 ft | 435 kts | 264° |
| 2026-04-26 13:00 | 41.47456 | -6.32754 | 38131 ft | 434 kts | 256° |
| 2026-04-26 13:00 | 41.46030 | -6.40585 | 38131 ft | 434 kts | 256° |
| 2026-04-26 13:01 | 41.44612 | -6.48418 | 38134 ft | 434 kts | 256° |
| 2026-04-26 13:01 | 41.43184 | -6.56232 | 38115 ft | 434 kts | 256° |
| 2026-04-26 13:02 | 41.41749 | -6.64052 | 37891 ft | 435 kts | 256° |
| 2026-04-26 13:02 | 41.41028 | -6.67959 | 37612 ft | 434 kts | 256° |
| 2026-04-26 13:02 | 41.40307 | -6.71867 | 37285 ft | 434 kts | 256° |
| 2026-04-26 13:03 | 41.39582 | -6.75786 | 36536 ft | 436 kts | 256° |
| 2026-04-26 13:03 | 41.38854 | -6.79725 | 35716 ft | 438 kts | 256° |
| 2026-04-26 13:03 | 41.38122 | -6.83684 | 34801 ft | 443 kts | 256° |
| 2026-04-26 13:03 | 41.37382 | -6.87679 | 33938 ft | 446 kts | 256° |
| 2026-04-26 13:04 | 41.36634 | -6.91700 | 32859 ft | 450 kts | 256° |
| 2026-04-26 13:04 | 41.35874 | -6.95765 | 31726 ft | 456 kts | 256° |
| 2026-04-26 13:04 | 41.35102 | -6.99889 | 30653 ft | 460 kts | 256° |
| 2026-04-26 13:04 | 41.34324 | -7.04047 | 29404 ft | 465 kts | 256° |
| 2026-04-26 13:05 | 41.33556 | -7.08135 | 28854 ft | 455 kts | 256° |
| 2026-04-26 13:05 | 41.32794 | -7.12184 | 28138 ft | 448 kts | 256° |
| 2026-04-26 13:05 | 41.32043 | -7.16176 | 27436 ft | 442 kts | 256° |
| 2026-04-26 13:05 | 41.31267 | -7.20118 | 26723 ft | 438 kts | 255° |
| 2026-04-26 13:06 | 41.30414 | -7.23978 | 26044 ft | 433 kts | 253° |
| 2026-04-26 13:06 | 41.29509 | -7.27781 | 25373 ft | 429 kts | 252° |
| 2026-04-26 13:06 | 41.28583 | -7.31539 | 24708 ft | 425 kts | 252° |
| 2026-04-26 13:06 | 41.27661 | -7.35259 | 24050 ft | 422 kts | 252° |
| 2026-04-26 13:07 | 41.26755 | -7.38956 | 23362 ft | 419 kts | 252° |
| 2026-04-26 13:07 | 41.25872 | -7.42621 | 22732 ft | 414 kts | 253° |
| 2026-04-26 13:07 | 41.25012 | -7.46249 | 22168 ft | 409 kts | 253° |
| 2026-04-26 13:07 | 41.24164 | -7.49845 | 21604 ft | 405 kts | 253° |
| 2026-04-26 13:08 | 41.23326 | -7.53398 | 21085 ft | 402 kts | 253° |
| 2026-04-26 13:08 | 41.22492 | -7.56930 | 20567 ft | 399 kts | 253° |
| 2026-04-26 13:08 | 41.21664 | -7.60436 | 20065 ft | 396 kts | 253° |
| 2026-04-26 13:08 | 41.20838 | -7.63910 | 19552 ft | 393 kts | 252° |
| 2026-04-26 13:09 | 41.20012 | -7.67362 | 19062 ft | 390 kts | 252° |
| 2026-04-26 13:09 | 41.19190 | -7.70782 | 18552 ft | 388 kts | 252° |
| 2026-04-26 13:09 | 41.18369 | -7.74184 | 17988 ft | 386 kts | 252° |
| 2026-04-26 13:09 | 41.17554 | -7.77559 | 17456 ft | 382 kts | 252° |
| 2026-04-26 13:10 | 41.16745 | -7.80914 | 16927 ft | 379 kts | 252° |
| 2026-04-26 13:10 | 41.15950 | -7.84227 | 16390 ft | 376 kts | 252° |
| 2026-04-26 13:10 | 41.15162 | -7.87521 | 15859 ft | 373 kts | 252° |
| 2026-04-26 13:10 | 41.14377 | -7.90800 | 15313 ft | 371 kts | 252° |
| 2026-04-26 13:11 | 41.13602 | -7.94013 | 14777 ft | 370 kts | 252° |
| 2026-04-26 13:11 | 41.12814 | -7.97252 | 14227 ft | 368 kts | 252° |
| 2026-04-26 13:11 | 41.12026 | -8.00476 | 13653 ft | 367 kts | 252° |
| 2026-04-26 13:11 | 41.11243 | -8.03688 | 13080 ft | 364 kts | 252° |
| 2026-04-26 13:12 | 41.10470 | -8.06869 | 12522 ft | 361 kts | 252° |
| 2026-04-26 13:12 | 41.09708 | -8.10017 | 11965 ft | 358 kts | 252° |
| 2026-04-26 13:12 | 41.08947 | -8.13147 | 11392 ft | 356 kts | 252° |
| 2026-04-26 13:12 | 41.08190 | -8.16253 | 10839 ft | 353 kts | 252° |
| 2026-04-26 13:13 | 41.07446 | -8.19291 | 10678 ft | 339 kts | 251° |
| 2026-04-26 13:13 | 41.06735 | -8.22202 | 10550 ft | 324 kts | 251° |
| 2026-04-26 13:13 | 41.06056 | -8.24991 | 10431 ft | 312 kts | 251° |
| 2026-04-26 13:13 | 41.05398 | -8.27687 | 10243 ft | 303 kts | 251° |
| 2026-04-26 13:14 | 41.04753 | -8.30315 | 10153 ft | 299 kts | 251° |
| 2026-04-26 13:14 | 41.04108 | -8.32928 | 10027 ft | 299 kts | 251° |
| 2026-04-26 13:14 | 41.03456 | -8.35560 | 9527 ft | 300 kts | 251° |
| 2026-04-26 13:14 | 41.02808 | -8.38181 | 9099 ft | 300 kts | 251° |
| 2026-04-26 13:15 | 41.02163 | -8.40793 | 8710 ft | 296 kts | 251° |
| 2026-04-26 13:15 | 41.01525 | -8.43374 | 8295 ft | 295 kts | 250° |
| 2026-04-26 13:15 | 41.00894 | -8.45927 | 7951 ft | 290 kts | 251° |
| 2026-04-26 13:15 | 41.00479 | -8.47611 | 7612 ft | 291 kts | 251° |
| 2026-04-26 13:16 | 40.99902 | -8.51085 | 6990 ft | 292 kts | 257° |
| 2026-04-26 13:16 | 40.99512 | -8.53727 | 6545 ft | 292 kts | 257° |
| 2026-04-26 13:16 | 40.99126 | -8.56329 | 6085 ft | 283 kts | 258° |
| 2026-04-26 13:16 | 40.98954 | -8.58867 | 5601 ft | 274 kts | 279° |
| 2026-04-26 13:17 | 41.01317 | -8.62220 | 4765 ft | 254 kts | 343° |
| 2026-04-26 13:17 | 41.03022 | -8.62764 | 4225 ft | 252 kts | 349° |
| 2026-04-26 13:18 | 41.06356 | -8.63496 | 3621 ft | 232 kts | 351° |
| 2026-04-26 13:18 | 41.07941 | -8.63844 | 3316 ft | 228 kts | 350° |
| 2026-04-26 13:18 | 41.10932 | -8.64547 | 2707 ft | 207 kts | 349° |
| 2026-04-26 13:19 | 41.12281 | -8.64878 | 2457 ft | 189 kts | 349° |
| 2026-04-26 13:19 | 41.13520 | -8.65190 | 2203 ft | 173 kts | 349° |
| 2026-04-26 13:19 | 41.14648 | -8.65477 | 1993 ft | 155 kts | 348° |
| 2026-04-26 13:19 | 41.15653 | -8.65736 | 1783 ft | 138 kts | 346° |
| 2026-04-26 13:20 | 41.16571 | -8.65976 | 1602 ft | 131 kts | 347° |
| 2026-04-26 13:20 | 41.17162 | -8.66130 | 1489 ft | 130 kts | 347° |
| 2026-04-26 13:20 | 41.18039 | -8.66358 | 1321 ft | 128 kts | 347° |
| 2026-04-26 13:20 | 41.18910 | -8.66585 | 1156 ft | 126 kts | 347° |
| 2026-04-26 13:21 | 41.19771 | -8.66811 | 992 ft | 125 kts | 346° |
| 2026-04-26 13:21 | 41.20624 | -8.67030 | 831 ft | 124 kts | 347° |
| 2026-04-26 13:21 | 41.21475 | -8.67253 | 646 ft | 123 kts | 347° |
| 2026-04-26 13:21 | 41.22321 | -8.67473 | 463 ft | 125 kts | 347° |
| 2026-04-26 13:22 | 41.23171 | -8.67699 | 300 ft | 124 kts | 347° |
| 2026-04-26 13:22 | 41.23984 | -8.67911 | 224 ft | 106 kts | 349° |
| 2026-04-26 13:22 | 41.24540 | -8.68055 | 207 ft | 57 kts | 349° |
| 2026-04-26 13:22 | 41.24818 | -8.68127 | 198 ft | 34 kts | 349° |
| 2026-04-26 13:23 | 41.25035 | -8.68172 | 188 ft | 30 kts | 359° |
| 2026-04-26 13:23 | 41.25239 | -8.68123 | 181 ft | 30 kts | 19° |
| 2026-04-26 13:23 | 41.25282 | -8.68031 | 181 ft | 12 kts | 131° |
| 2026-04-26 13:23 | 41.25216 | -8.68001 | 185 ft | 9 kts | 168° |
| 2026-04-26 13:24 | 41.25154 | -8.67985 | 188 ft | 10 kts | 169° |
| 2026-04-26 13:24 | 41.25081 | -8.67966 | 191 ft | 12 kts | 168° |
| 2026-04-26 13:24 | 41.24986 | -8.67942 | 200 ft | 16 kts | 169° |
| 2026-04-26 13:24 | 41.24872 | -8.67904 | 201 ft | 17 kts | 157° |
| 2026-04-26 13:25 | 41.24760 | -8.67829 | 208 ft | 19 kts | 161° |
| 2026-04-26 13:25 | 41.24629 | -8.67793 | 213 ft | 20 kts | 169° |
| 2026-04-26 13:25 | 41.24505 | -8.67760 | 220 ft | 17 kts | 169° |
| 2026-04-26 13:25 | 41.24401 | -8.67734 | 227 ft | 14 kts | 169° |
| 2026-04-26 13:26 | 41.24318 | -8.67707 | 230 ft | 11 kts | 158° |
| 2026-04-26 13:26 | 41.24271 | -8.67651 | 234 ft | 8 kts | 126° |
| 2026-04-26 13:26 | 41.24235 | -8.67595 | 237 ft | 9 kts | 142° |
| 2026-04-26 13:26 | 41.24165 | -8.67565 | 238 ft | 13 kts | 168° |
| 2026-04-26 13:27 | 41.24054 | -8.67536 | 238 ft | 18 kts | 169° |
| 2026-04-26 13:27 | 41.23925 | -8.67503 | 238 ft | 20 kts | 168° |
| 2026-04-26 13:27 | 41.23801 | -8.67471 | 239 ft | 14 kts | 169° |
| 2026-04-26 13:27 | 41.23725 | -8.67402 | 240 ft | 11 kts | 127° |
| 2026-04-26 13:28 | 41.23710 | -8.67344 | 242 ft | 5 kts | 74° |
| 2026-04-26 13:28 | 41.23720 | -8.67312 | 244 ft | 3 kts | 69° |
| 2026-04-26 13:28 | 41.23729 | -8.67279 | 245 ft | 4 kts | 69° |
| 2026-04-26 13:28 | 41.23734 | -8.67263 | 245 ft | 0 kts | 69° |